Skiros, Greece
Current Conditions -  °F | °C
As of 8:50 PM on Friday 28 Nov 2014 (Local Time) from LGSY Reporting Station
Broken Clouds Broken Clouds  
Wind Chill: 55°   Ceiling: 4000
Heat Index: 55°   Visibility: 6mi
Dew Point: 48°   Wind: 0mph
Humidity: 77%   Direction: NA
Pressure: 30.18"   Gusts: NA
Location:  38.9°N, 24.56°E
Report Text: LGSY 281750Z 00000KT 9999 FEW020 BKN040 13/09 Q1022 RMK SCT080 BLU
Loading
Personal Weather Stations






























Interactive Weather Map New forecast layout! Learn more

10-Day Weather Forecast

Advertisements
Track Severe Weather on mobile